Time;durP1;ratioP1;P1;durP2;ratioP2;P2;SDS_P1;SDS_P2;PMS_P1;PMS_P2;Temp;Humidity;BMP_temperature;BMP_pressure;BME280_temperature;BME280_humidity;BME280_pressure;Samples;Min_cycle;Max_cycle;Signal;HPM_P1;HPM_P2
2022/04/03 00:01:26;;;;;;;6.70;6.10;;;1.60;99.90;;;;;;5054761;28;20883;-45
2022/04/03 00:03:53;;;;;;;7.30;6.70;;;1.60;99.90;;;;;;5054354;28;20996;-44
2022/04/03 00:06:22;;;;;;;8.20;7.40;;;1.60;99.90;;;;;;5054862;28;20480;-44
2022/04/03 00:08:49;;;;;;;8.70;7.90;;;1.30;99.90;;;;;;5054118;28;20448;-44
2022/04/03 00:11:17;;;;;;;7.73;7.13;;;1.20;99.90;;;;;;5054398;28;20476;-44
2022/04/03 00:13:44;;;;;;;9.97;8.83;;;1.00;99.90;;;;;;5054830;28;20515;-47
2022/04/03 00:16:11;;;;;;;9.20;7.63;;;1.00;99.90;;;;;;5054863;28;20446;-44
2022/04/03 00:18:38;;;;;;;8.40;7.60;;;1.10;99.90;;;;;;5054722;28;20441;-49
2022/04/03 00:21:06;;;;;;;9.30;8.40;;;1.10;99.90;;;;;;5054460;28;20455;-44
2022/04/03 00:23:35;;;;;;;9.03;8.23;;;1.00;99.90;;;;;;5054643;28;20496;-44
2022/04/03 00:26:01;;;;;;;8.40;7.70;;;1.10;99.90;;;;;;5054930;28;20465;-44
2022/04/03 00:28:30;;;;;;;9.40;8.50;;;1.30;99.90;;;;;;5054391;28;20465;-53
2022/04/03 00:30:57;;;;;;;10.43;8.20;;;1.40;99.90;;;;;;5053939;28;20535;-47
2022/04/03 00:33:24;;;;;;;8.20;7.40;;;1.40;99.90;;;;;;5054761;28;20866;-43
2022/04/03 00:35:52;;;;;;;9.40;7.87;;;1.40;99.90;;;;;;5054175;28;20938;-55
2022/04/03 00:38:19;;;;;;;8.60;7.80;;;1.20;99.90;;;;;;5054803;28;20479;-43
2022/04/03 00:40:48;;;;;;;9.43;8.53;;;0.90;99.90;;;;;;5054132;28;20487;-46
2022/04/03 00:43:15;;;;;;;10.37;9.30;;;0.90;99.90;;;;;;5053911;28;20445;-53
2022/04/03 00:45:45;;;;;;;9.23;8.10;;;0.80;99.90;;;;;;5054540;28;20889;-48
2022/04/03 00:48:12;;;;;;;9.80;8.40;;;0.80;99.90;;;;;;5054557;28;21080;-45
2022/04/03 00:50:40;;;;;;;9.30;8.30;;;0.70;99.90;;;;;;5053659;28;20484;-45
2022/04/03 00:53:07;;;;;;;10.57;9.60;;;0.50;99.90;;;;;;5054023;28;20849;-44
2022/04/03 00:55:34;;;;;;;10.30;9.23;;;0.40;99.90;;;;;;5054683;28;20480;-44
2022/04/03 00:58:02;;;;;;;10.87;9.87;;;0.40;99.90;;;;;;5055433;28;20481;-43
2022/04/03 01:00:30;;;;;;;10.93;9.83;;;0.30;99.90;;;;;;5054091;28;20473;-44
2022/04/03 01:02:56;;;;;;;10.40;9.40;;;0.30;99.90;;;;;;5054585;28;20441;-43
2022/04/03 01:05:24;;;;;;;10.33;9.20;;;0.30;99.90;;;;;;5054406;28;20515;-53
2022/04/03 01:07:51;;;;;;;10.83;9.60;;;0.40;99.90;;;;;;5053803;28;20449;-44
2022/04/03 01:10:18;;;;;;;10.00;9.00;;;0.40;99.90;;;;;;5054260;28;20472;-44
2022/04/03 01:12:45;;;;;;;10.93;9.70;;;0.40;99.90;;;;;;5054888;28;20519;-44
2022/04/03 01:15:16;;;;;;;13.23;10.13;;;0.60;99.90;;;;;;5055876;28;20978;-44
2022/04/03 01:17:44;;;;;;;11.20;10.10;;;0.80;99.90;;;;;;5057873;28;20909;-44
2022/04/03 01:20:12;;;;;;;14.60;12.07;;;0.90;99.90;;;;;;5057429;28;20480;-44
2022/04/03 01:22:39;;;;;;;10.13;9.10;;;1.00;99.90;;;;;;5058507;28;20473;-44
2022/04/03 01:25:09;;;;;;;11.37;10.20;;;1.00;99.90;;;;;;5109838;22;20523;-43
2022/04/03 01:27:36;;;;;;;10.53;9.43;;;1.10;99.90;;;;;;5054300;28;20778;-43
2022/04/03 01:30:04;;;;;;;11.90;10.47;;;1.10;99.90;;;;;;5053644;28;20987;-43
2022/04/03 01:32:32;;;;;;;9.97;8.97;;;1.10;99.90;;;;;;5054230;28;20507;-43
2022/04/03 01:34:59;;;;;;;11.83;10.63;;;1.10;99.90;;;;;;5054128;28;21007;-42
2022/04/03 01:37:26;;;;;;;11.87;9.50;;;1.20;99.90;;;;;;5053824;28;20469;-43
2022/04/03 01:39:52;;;;;;;13.47;10.00;;;1.30;99.90;;;;;;5053955;28;20489;-43
2022/04/03 01:42:21;;;;;;;11.17;9.77;;;1.40;99.90;;;;;;5054337;28;20530;-44
2022/04/03 01:44:48;;;;;;;11.47;10.30;;;1.40;99.90;;;;;;5054084;28;20498;-44
2022/04/03 01:47:15;;;;;;;12.40;11.00;;;1.30;99.90;;;;;;5054169;28;20476;-43
2022/04/03 01:49:42;;;;;;;12.77;11.10;;;1.10;99.90;;;;;;5053516;28;20484;-46
2022/04/03 01:52:09;;;;;;;11.63;10.33;;;0.90;99.90;;;;;;5053428;28;20562;-43
2022/04/03 01:54:36;;;;;;;12.10;10.90;;;0.90;99.90;;;;;;5053791;28;20461;-48
2022/04/03 01:57:03;;;;;;;11.33;10.23;;;0.70;99.90;;;;;;5053837;28;20531;-42
2022/04/03 01:59:32;;;;;;;11.63;10.40;;;0.70;99.90;;;;;;5053390;28;20477;-42
2022/04/03 02:01:59;;;;;;;13.20;11.80;;;0.70;99.90;;;;;;5053672;28;20509;-43
2022/04/03 02:04:26;;;;;;;12.40;11.10;;;0.50;99.90;;;;;;5053859;28;20542;-43
2022/04/03 02:06:53;;;;;;;12.50;11.30;;;0.50;99.90;;;;;;5053496;28;21023;-45
2022/04/03 02:09:20;;;;;;;12.53;11.23;;;0.40;99.90;;;;;;5053433;28;20543;-43
2022/04/03 02:11:47;;;;;;;13.37;11.23;;;0.40;99.90;;;;;;5053404;28;20481;-43
2022/04/03 02:14:14;;;;;;;13.33;12.00;;;0.40;99.90;;;;;;5053922;28;20504;-43
2022/04/03 02:16:42;;;;;;;13.80;11.43;;;0.40;99.90;;;;;;5053599;28;21006;-43
2022/04/03 02:19:09;;;;;;;14.40;11.37;;;0.40;99.90;;;;;;5053188;28;20524;-42
2022/04/03 02:21:37;;;;;;;16.00;12.33;;;0.40;99.90;;;;;;5053303;28;20484;-43
2022/04/03 02:24:04;;;;;;;13.43;12.03;;;0.50;99.90;;;;;;5053081;28;20523;-43
2022/04/03 02:26:31;;;;;;;12.67;11.23;;;0.70;99.90;;;;;;5052767;28;20476;-43
2022/04/03 02:28:58;;;;;;;13.03;11.17;;;0.80;99.90;;;;;;5052796;28;21026;-43
2022/04/03 02:31:25;;;;;;;14.50;11.57;;;0.90;99.90;;;;;;5053341;28;20512;-44
2022/04/03 02:33:53;;;;;;;14.60;12.00;;;1.00;99.90;;;;;;5053244;28;20476;-44
2022/04/03 02:36:20;;;;;;;12.10;10.90;;;1.10;99.90;;;;;;5052734;28;20497;-42
2022/04/03 02:38:47;;;;;;;13.83;11.73;;;1.20;99.90;;;;;;5052808;28;20524;-45
2022/04/03 02:41:14;;;;;;;12.57;11.37;;;1.30;99.90;;;;;;5052868;28;20864;-43
2022/04/03 02:43:41;;;;;;;11.83;10.63;;;1.40;99.90;;;;;;5052928;28;20542;-44
2022/04/03 02:46:08;;;;;;;17.70;12.77;;;1.40;99.90;;;;;;5052538;28;20948;-42
2022/04/03 02:48:35;;;;;;;13.33;12.03;;;1.30;99.90;;;;;;5053131;28;20481;-43
2022/04/03 02:51:04;;;;;;;16.00;11.90;;;1.20;99.90;;;;;;5052649;28;20441;-42
2022/04/03 02:53:31;;;;;;;15.60;11.67;;;1.10;99.90;;;;;;5052379;28;20500;-43
2022/04/03 02:55:57;;;;;;;12.90;11.60;;;1.20;99.90;;;;;;5052810;28;20502;-43
2022/04/03 02:58:25;;;;;;;12.40;10.93;;;1.20;99.90;;;;;;5052824;28;20479;-43
2022/04/03 03:00:51;;;;;;;13.67;11.97;;;1.30;99.90;;;;;;5052267;28;20496;-43
2022/04/03 03:03:18;;;;;;;12.67;11.37;;;1.30;99.90;;;;;;5052906;28;20528;-46
2022/04/03 03:05:45;;;;;;;12.40;11.10;;;1.30;99.90;;;;;;5052311;28;20551;-43
2022/04/03 03:08:14;;;;;;;12.67;11.37;;;1.30;99.90;;;;;;5052071;28;20525;-43
2022/04/03 03:10:41;;;;;;;13.13;11.77;;;1.30;99.90;;;;;;5051942;28;20969;-46
2022/04/03 03:13:08;;;;;;;12.20;11.10;;;1.30;99.90;;;;;;5052509;28;20572;-42
2022/04/03 03:15:35;;;;;;;11.93;10.43;;;1.40;99.90;;;;;;5052394;28;20468;-44
2022/04/03 03:18:02;;;;;;;14.10;12.60;;;1.40;99.90;;;;;;5052156;28;20477;-43
2022/04/03 03:20:29;;;;;;;16.93;13.03;;;1.40;99.90;;;;;;5052014;28;20445;-47
2022/04/03 03:22:56;;;;;;;14.13;12.63;;;1.40;99.90;;;;;;5052284;28;20479;-43
2022/04/03 03:25:24;;;;;;;14.40;12.50;;;1.30;99.90;;;;;;5051940;28;20903;-43
2022/04/03 03:27:51;;;;;;;13.93;12.47;;;1.30;99.90;;;;;;5052198;28;20524;-43
2022/04/03 03:30:18;;;;;;;14.83;13.00;;;1.40;99.90;;;;;;5051684;28;20480;-44
2022/04/03 03:32:45;;;;;;;12.37;11.07;;;1.40;99.90;;;;;;5051719;28;20569;-43
2022/04/03 03:35:12;;;;;;;14.20;12.70;;;1.40;99.90;;;;;;5051711;28;20548;-46
2022/04/03 03:37:40;;;;;;;14.63;13.10;;;1.40;99.90;;;;;;5051625;28;20469;-42
2022/04/03 03:40:11;;;;;;;15.57;13.37;;;1.40;99.90;;;;;;5051648;28;20477;-45
2022/04/03 03:42:40;;;;;;;13.93;12.63;;;1.50;99.90;;;;;;5051819;28;20475;-43
2022/04/03 03:45:09;;;;;;;15.20;13.47;;;1.50;99.90;;;;;;5051676;28;20461;-43
2022/04/03 03:47:36;;;;;;;15.33;13.70;;;1.50;99.90;;;;;;5051713;28;20442;-43
2022/04/03 03:50:03;;;;;;;13.87;12.47;;;1.50;99.90;;;;;;5051196;28;20449;-43
2022/04/03 03:52:31;;;;;;;16.33;13.83;;;1.50;99.90;;;;;;5051430;28;20477;-42
2022/04/03 03:54:58;;;;;;;16.50;13.97;;;1.50;99.90;;;;;;5051559;28;20507;-44
2022/04/03 03:57:25;;;;;;;14.80;13.20;;;1.50;99.90;;;;;;5051609;28;20495;-45
2022/04/03 03:59:53;;;;;;;15.53;13.90;;;1.50;99.90;;;;;;5051729;28;20810;-44
2022/04/03 04:02:20;;;;;;;15.33;13.57;;;1.50;99.90;;;;;;5051574;28;20532;-43
2022/04/03 04:04:48;;;;;;;17.23;13.67;;;1.50;99.90;;;;;;5051518;28;20555;-42
2022/04/03 04:07:15;;;;;;;21.23;14.30;;;1.50;99.90;;;;;;5051357;28;20535;-43
2022/04/03 04:09:42;;;;;;;15.30;13.80;;;1.40;99.90;;;;;;5051438;28;20476;-43
2022/04/03 04:12:10;;;;;;;18.33;15.53;;;1.30;99.90;;;;;;5051142;28;20550;-45
2022/04/03 04:14:39;;;;;;;19.47;15.20;;;1.20;99.90;;;;;;5051283;28;20477;-43
2022/04/03 04:17:08;;;;;;;20.00;15.93;;;1.10;99.90;;;;;;5051458;28;20448;-43
2022/04/03 04:19:35;;;;;;;18.60;15.17;;;1.00;99.90;;;;;;5051075;28;20445;-43
2022/04/03 04:22:02;;;;;;;18.20;15.87;;;1.00;99.90;;;;;;5051203;28;20454;-43
2022/04/03 04:24:29;;;;;;;18.73;16.10;;;0.90;99.90;;;;;;5051039;28;20994;-44
2022/04/03 04:26:58;;;;;;;17.67;15.73;;;0.90;99.90;;;;;;5051443;28;20473;-43
2022/04/03 04:29:25;;;;;;;18.23;14.70;;;0.90;99.90;;;;;;5050720;28;20452;-43
2022/04/03 04:31:52;;;;;;;18.50;15.80;;;0.90;99.90;;;;;;5051043;28;20978;-43
2022/04/03 04:34:20;;;;;;;19.87;17.10;;;0.90;99.90;;;;;;5050934;28;20468;-43
2022/04/03 04:36:47;;;;;;;18.80;15.87;;;0.90;99.90;;;;;;5050791;28;20473;-43
2022/04/03 04:39:14;;;;;;;19.80;17.47;;;0.80;99.90;;;;;;5050866;28;20540;-43
2022/04/03 04:41:41;;;;;;;19.30;15.60;;;0.80;99.90;;;;;;5051001;28;20532;-43
2022/04/03 04:44:08;;;;;;;20.97;15.83;;;0.80;99.90;;;;;;5050813;28;20834;-44
2022/04/03 04:46:35;;;;;;;21.93;16.17;;;0.80;99.90;;;;;;5051038;28;20508;-43
2022/04/03 04:49:02;;;;;;;18.03;15.80;;;0.80;99.90;;;;;;5050908;28;20532;-41
2022/04/03 04:51:30;;;;;;;22.60;16.40;;;0.80;99.90;;;;;;5054421;28;20449;-46
2022/04/03 04:53:57;;;;;;;22.23;17.50;;;0.80;99.90;;;;;;5055169;28;20492;-44
2022/04/03 04:56:24;;;;;;;20.10;15.93;;;0.80;99.90;;;;;;5055186;28;20443;-43
2022/04/03 04:58:51;;;;;;;19.03;15.93;;;0.70;99.90;;;;;;5054765;28;20477;-42
2022/04/03 05:01:18;;;;;;;21.60;16.50;;;0.70;99.90;;;;;;5054830;28;20480;-43
2022/04/03 05:03:45;;;;;;;18.63;15.80;;;0.60;99.90;;;;;;5054609;28;20977;-43
2022/04/03 05:06:15;;;;;;;20.33;17.33;;;0.60;99.90;;;;;;5054583;28;20531;-45
2022/04/03 05:08:44;;;;;;;20.27;16.53;;;0.60;99.90;;;;;;5055001;28;20528;-43
2022/04/03 05:11:13;;;;;;;19.90;16.20;;;0.60;99.90;;;;;;5054570;28;20487;-43
2022/04/03 05:13:40;;;;;;;30.40;22.30;;;0.50;99.90;;;;;;5054742;28;20480;-42
2022/04/03 05:16:07;;;;;;;23.27;17.93;;;0.50;99.90;;;;;;5054843;28;20477;-45
2022/04/03 05:18:35;;;;;;;21.73;16.80;;;0.50;99.90;;;;;;5054212;28;20478;-43
2022/04/03 05:21:02;;;;;;;23.23;16.97;;;0.50;99.90;;;;;;5054516;28;20468;-42
2022/04/03 05:23:29;;;;;;;23.47;18.17;;;0.60;99.90;;;;;;5054372;28;20455;-43
2022/04/03 05:25:57;;;;;;;20.60;17.00;;;0.50;99.90;;;;;;5054691;28;20502;-43
2022/04/03 05:28:26;;;;;;;18.60;14.83;;;0.50;99.90;;;;;;5054739;28;20481;-44
2022/04/03 05:30:53;;;;;;;21.87;17.53;;;0.40;99.90;;;;;;5053924;28;20500;-42
2022/04/03 05:33:20;;;;;;;18.33;15.30;;;0.40;99.90;;;;;;5053860;28;20568;-43
2022/04/03 05:35:47;;;;;;;18.50;15.23;;;0.50;99.90;;;;;;5054018;28;21034;-43
2022/04/03 05:38:14;;;;;;;17.23;14.80;;;0.40;99.90;;;;;;5054325;28;20484;-42
2022/04/03 05:40:41;;;;;;;22.73;16.60;;;0.40;99.90;;;;;;5054009;28;20531;-44
2022/04/03 05:43:09;;;;;;;24.97;19.70;;;0.50;99.90;;;;;;5054081;28;20528;-45
2022/04/03 05:45:38;;;;;;;26.13;20.40;;;0.50;99.90;;;;;;5053710;28;20895;-43
2022/04/03 05:48:05;;;;;;;22.87;18.50;;;0.40;99.90;;;;;;5053894;28;20575;-44
2022/04/03 05:50:32;;;;;;;27.03;20.50;;;0.30;99.90;;;;;;5053658;28;20487;-43
2022/04/03 05:52:59;;;;;;;21.57;18.87;;;0.20;99.90;;;;;;5053602;28;20563;-43
2022/04/03 05:55:27;;;;;;;20.10;17.37;;;0.10;99.90;;;;;;5053918;28;20893;-42
2022/04/03 05:57:54;;;;;;;22.10;19.47;;;0.20;99.90;;;;;;5054248;28;20455;-42
2022/04/03 06:00:23;;;;;;;23.20;19.40;;;0.20;99.90;;;;;;5053241;28;20539;-46
2022/04/03 06:02:52;;;;;;;28.43;21.30;;;0.20;99.90;;;;;;5053567;28;20504;-43
2022/04/03 06:05:21;;;;;;;24.87;17.93;;;0.40;99.90;;;;;;5053485;28;20502;-46
2022/04/03 06:07:49;;;;;;;26.67;19.50;;;0.40;99.90;;;;;;5053653;28;20481;-44
2022/04/03 06:10:16;;;;;;;23.57;18.00;;;0.50;99.90;;;;;;5053633;28;20532;-45
2022/04/03 06:12:53;;;;;;;23.87;19.40;;;0.60;99.90;;;;;;5053676;28;20561;-43
2022/04/03 06:15:21;;;;;;;27.13;21.13;;;0.60;99.90;;;;;;5053134;28;20488;-45
2022/04/03 06:17:49;;;;;;;24.00;18.67;;;0.70;99.90;;;;;;5053544;28;20473;-43
2022/04/03 06:20:16;;;;;;;26.70;18.10;;;0.70;99.90;;;;;;5053445;28;20528;-42
2022/04/03 06:22:43;;;;;;;22.20;17.10;;;0.70;99.90;;;;;;5051875;28;20476;-44
2022/04/03 06:25:10;;;;;;;21.80;17.33;;;0.80;99.90;;;;;;5052967;28;20560;-43
2022/04/03 06:27:37;;;;;;;21.77;16.80;;;1.00;99.90;;;;;;5053014;28;20478;-45
2022/04/03 06:30:05;;;;;;;22.93;17.50;;;0.90;99.90;;;;;;5052788;28;20528;-43
2022/04/03 06:32:33;;;;;;;22.70;18.30;;;0.80;99.90;;;;;;5053027;28;20473;-43
2022/04/03 06:35:00;;;;;;;20.17;15.90;;;0.80;99.90;;;;;;5052929;28;20496;-43
2022/04/03 06:37:27;;;;;;;19.33;15.97;;;0.80;99.90;;;;;;5052506;28;20480;-43
2022/04/03 06:39:54;;;;;;;19.00;16.50;;;0.80;99.90;;;;;;5052787;28;20531;-43
2022/04/03 06:42:21;;;;;;;24.33;17.97;;;0.80;99.90;;;;;;5052900;28;20548;-43
2022/04/03 06:44:48;;;;;;;20.87;18.10;;;1.00;99.90;;;;;;5052706;28;20496;-44
2022/04/03 06:47:15;;;;;;;25.10;19.10;;;1.20;99.90;;;;;;5052955;28;20520;-42
2022/04/03 06:49:44;;;;;;;21.63;16.70;;;1.30;99.90;;;;;;5052831;28;20512;-46
2022/04/03 06:52:11;;;;;;;21.70;17.13;;;1.40;99.90;;;;;;5051355;28;20906;-45
2022/04/03 06:54:38;;;;;;;25.57;20.90;;;1.60;99.90;;;;;;5051083;28;21090;-44
2022/04/03 06:57:05;;;;;;;24.63;19.20;;;1.60;99.90;;;;;;5051902;28;20544;-43
2022/04/03 06:59:32;;;;;;;19.83;16.63;;;1.70;99.90;;;;;;5051177;28;20520;-44
2022/04/03 07:01:59;;;;;;;20.30;17.37;;;1.80;99.90;;;;;;5052463;28;20492;-43
2022/04/03 07:04:25;;;;;;;26.13;20.17;;;1.90;99.90;;;;;;5052097;28;20536;-43
2022/04/03 07:06:54;;;;;;;46.27;38.67;;;2.00;99.90;;;;;;5052030;28;20532;-44
2022/04/03 07:09:21;;;;;;;17.00;15.20;;;2.00;99.90;;;;;;5051758;28;20474;-43
2022/04/03 07:11:47;;;;;;;15.70;14.10;;;2.00;99.90;;;;;;5051964;28;20537;-43
2022/04/03 07:14:14;;;;;;;19.33;15.97;;;2.10;99.90;;;;;;5051453;28;20564;-43
2022/04/03 07:16:41;;;;;;;19.60;13.87;;;2.20;99.90;;;;;;5052207;28;20979;-43
2022/04/03 07:19:08;;;;;;;15.87;14.27;;;2.20;99.90;;;;;;5052168;28;20470;-46
2022/04/03 07:21:35;;;;;;;16.20;14.07;;;2.30;99.90;;;;;;5050489;28;20959;-44
2022/04/03 07:26:32;;;;;;;18.90;15.00;;;2.50;99.90;;;;;;5103811;22;20883;-48
2022/04/03 07:28:59;;;;;;;17.27;13.30;;;2.50;99.90;;;;;;5050191;28;20490;-48
2022/04/03 07:31:28;;;;;;;16.70;13.90;;;2.50;99.90;;;;;;5050379;28;20480;-44
2022/04/03 07:33:55;;;;;;;13.63;12.00;;;2.50;99.90;;;;;;5050501;28;20474;-45
2022/04/03 07:36:22;;;;;;;15.27;11.50;;;2.60;99.90;;;;;;5051223;28;20494;-44
2022/04/03 07:38:49;;;;;;;12.10;10.40;;;2.50;99.90;;;;;;5051921;28;20477;-44
2022/04/03 07:41:16;;;;;;;9.37;8.50;;;2.60;99.90;;;;;;5051766;28;20482;-44
2022/04/03 07:43:44;;;;;;;10.37;9.17;;;2.50;99.90;;;;;;5051967;28;20484;-44
2022/04/03 07:46:16;;;;;;;8.53;7.43;;;2.40;99.90;;;;;;5051609;28;20504;-44
2022/04/03 07:48:43;;;;;;;7.73;6.50;;;2.40;99.90;;;;;;5051455;28;20978;-44
2022/04/03 07:51:10;;;;;;;7.93;6.63;;;2.60;99.90;;;;;;5051177;28;20867;-44
2022/04/03 07:53:37;;;;;;;5.40;4.97;;;2.70;99.90;;;;;;5051803;28;20478;-44
2022/04/03 07:56:05;;;;;;;5.63;5.03;;;2.70;99.90;;;;;;5051536;28;20521;-48
2022/04/03 07:58:32;;;;;;;8.57;7.77;;;2.70;99.90;;;;;;5051661;28;21003;-44
2022/04/03 08:01:01;;;;;;;7.90;7.13;;;2.80;99.90;;;;;;5051199;28;20541;-46
2022/04/03 08:03:28;;;;;;;6.27;5.77;;;2.90;99.90;;;;;;5051295;28;20513;-44
2022/04/03 08:05:55;;;;;;;6.00;5.40;;;2.60;99.90;;;;;;5051262;28;20551;-44
2022/04/03 08:08:22;;;;;;;5.53;5.03;;;2.50;99.90;;;;;;5051772;28;20525;-44
2022/04/03 08:10:49;;;;;;;5.80;5.30;;;2.40;99.90;;;;;;5051187;28;20479;-44
2022/04/03 08:13:16;;;;;;;7.80;6.20;;;2.20;99.90;;;;;;5051215;28;20533;-45
2022/04/03 08:15:43;;;;;;;5.23;4.73;;;2.20;99.90;;;;;;5051062;28;20541;-44
2022/04/03 08:18:11;;;;;;;8.87;7.97;;;2.10;99.90;;;;;;5051166;28;20468;-49
2022/04/03 08:20:38;;;;;;;7.83;7.13;;;2.10;99.90;;;;;;5051087;28;20466;-48
2022/04/03 08:23:06;;;;;;;10.07;7.50;;;2.20;99.90;;;;;;5051069;28;21027;-44
2022/04/03 08:25:33;;;;;;;7.27;6.47;;;2.30;99.90;;;;;;5050920;28;20507;-45
2022/04/03 08:28:01;;;;;;;6.57;5.53;;;2.30;99.90;;;;;;5051361;28;20476;-44
2022/04/03 08:30:30;;;;;;;6.93;5.60;;;2.40;99.90;;;;;;5049775;28;20532;-45
2022/04/03 08:32:57;;;;;;;5.77;5.23;;;2.50;99.90;;;;;;5050802;28;20486;-47
2022/04/03 08:35:27;;;;;;;5.87;5.13;;;2.50;99.90;;;;;;5050751;28;20491;-44
2022/04/03 08:37:55;;;;;;;8.40;5.23;;;2.60;99.90;;;;;;5050733;28;20484;-44
2022/04/03 08:40:24;;;;;;;6.07;5.47;;;2.70;99.90;;;;;;5051045;28;20540;-44
2022/04/03 08:42:52;;;;;;;4.30;3.90;;;2.80;99.90;;;;;;5051064;28;20445;-44
2022/04/03 08:45:20;;;;;;;4.80;4.40;;;2.90;99.90;;;;;;5050823;28;20543;-46
2022/04/03 08:47:49;;;;;;;3.80;3.50;;;3.00;99.90;;;;;;5050368;28;20441;-44
2022/04/03 08:50:18;;;;;;;4.50;4.10;;;3.00;99.90;;;;;;5050658;28;20531;-48
2022/04/03 08:52:49;;;;;;;4.50;4.10;;;3.00;99.90;;;;;;5050289;28;20466;-44
2022/04/03 08:55:16;;;;;;;6.93;6.33;;;3.20;99.90;;;;;;5050459;28;20565;-44
2022/04/03 08:57:44;;;;;;;5.27;4.87;;;3.30;99.90;;;;;;5050767;28;20530;-45
2022/04/03 09:00:14;;;;;;;6.13;5.53;;;3.40;99.90;;;;;;5050350;28;20534;-47
2022/04/03 09:02:41;;;;;;;5.73;5.20;;;3.50;99.90;;;;;;5050417;28;20439;-44
2022/04/03 09:05:09;;;;;;;5.60;5.10;;;3.70;99.90;;;;;;5050587;28;20542;-44
2022/04/03 09:07:36;;;;;;;4.70;4.30;;;3.70;99.90;;;;;;5050146;28;20935;-43
2022/04/03 09:10:09;;;;;;;6.33;4.73;;;3.80;99.90;;;;;;5050177;28;20481;-45
2022/04/03 09:12:44;;;;;;;4.00;3.70;;;4.00;99.90;;;;;;5050631;28;20432;-44
2022/04/03 09:15:14;;;;;;;4.10;3.80;;;4.00;99.90;;;;;;5050624;28;20543;-45
2022/04/03 09:17:44;;;;;;;5.63;5.13;;;4.20;99.90;;;;;;5050507;28;20538;-44
2022/04/03 09:20:13;;;;;;;4.60;4.20;;;4.10;99.90;;;;;;5050087;28;20451;-44
2022/04/03 09:22:43;;;;;;;4.77;4.37;;;4.30;99.90;;;;;;5050784;28;20475;-44
2022/04/03 09:25:13;;;;;;;4.70;4.30;;;4.50;99.90;;;;;;5048463;28;20877;-44
2022/04/03 09:27:48;;;;;;;3.73;3.43;;;4.60;99.90;;;;;;5049433;28;20880;-44
2022/04/03 09:30:15;;;;;;;3.80;3.50;;;4.80;99.90;;;;;;5050287;28;20495;-47
2022/04/03 09:32:50;;;;;;;4.00;3.70;;;5.10;99.90;;;;;;5050500;28;20944;-44
2022/04/03 09:35:18;;;;;;;4.27;3.90;;;5.30;99.90;;;;;;5050078;28;20906;-48
2022/04/03 09:38:10;;;;;;;5.60;4.57;;;5.40;99.30;;;;;;5053924;28;20444;-48
2022/04/03 09:40:40;;;;;;;4.50;4.10;;;5.50;99.30;;;;;;5039300;28;20532;-48
2022/04/03 09:43:15;;;;;;;5.10;4.60;;;5.40;99.20;;;;;;5054151;28;20475;-44
2022/04/03 09:45:46;;;;;;;6.20;5.60;;;5.30;98.60;;;;;;5053809;28;21003;-44
2022/04/03 09:48:27;;;;;;;4.70;4.30;;;5.10;99.00;;;;;;5053619;28;20473;-44
2022/04/03 09:51:05;;;;;;;5.00;4.60;;;4.90;98.00;;;;;;5053517;28;20471;-46
2022/04/03 09:53:46;;;;;;;4.03;3.70;;;5.20;99.90;;;;;;5053848;28;20437;-46
2022/04/03 09:56:26;;;;;;;4.43;4.03;;;5.20;99.90;;;;;;5053721;28;20548;-44
2022/04/03 09:59:01;;;;;;;5.57;5.07;;;5.30;99.90;;;;;;5053816;28;20452;-44
2022/04/03 10:01:31;;;;;;;5.60;5.10;;;5.20;99.90;;;;;;5053619;28;20452;-45
2022/04/03 10:03:59;;;;;;;5.10;4.70;;;5.30;99.90;;;;;;5053921;28;20436;-44
2022/04/03 10:06:26;;;;;;;5.10;4.60;;;5.50;99.90;;;;;;5053310;28;20962;-44
2022/04/03 10:08:54;;;;;;;4.93;4.53;;;5.60;99.90;;;;;;5053556;28;20476;-45
2022/04/03 10:11:22;;;;;;;4.67;4.27;;;5.60;97.60;;;;;;5053755;28;20437;-44
2022/04/03 10:13:49;;;;;;;4.47;4.07;;;5.60;97.80;;;;;;5053290;28;20469;-49
2022/04/03 10:16:18;;;;;;;5.13;4.63;;;5.60;98.90;;;;;;5053256;28;20890;-44
2022/04/03 10:18:46;;;;;;;4.23;3.67;;;5.60;96.70;;;;;;5053169;28;20480;-44
2022/04/03 10:21:17;;;;;;;4.97;4.30;;;5.50;96.30;;;;;;5052198;28;20465;-44
2022/04/03 10:23:45;;;;;;;5.57;5.00;;;5.30;96.60;;;;;;5052109;28;20456;-45
2022/04/03 10:26:16;;;;;;;5.37;4.93;;;5.10;96.80;;;;;;5053000;28;20483;-44
2022/04/03 10:28:49;;;;;;;4.97;4.50;;;5.00;96.00;;;;;;5053241;28;20448;-44
2022/04/03 10:31:17;;;;;;;6.87;6.17;;;4.90;96.60;;;;;;5052265;28;20981;-44
2022/04/03 10:33:48;;;;;;;4.77;4.33;;;4.80;95.90;;;;;;5053232;28;20449;-44
2022/04/03 10:36:17;;;;;;;4.60;4.20;;;4.70;96.30;;;;;;5053103;28;20499;-48
2022/04/03 10:38:45;;;;;;;4.07;3.73;;;4.80;98.20;;;;;;5053440;28;20447;-51
2022/04/03 10:41:27;;;;;;;5.60;5.10;;;4.70;95.70;;;;;;5052772;28;20479;-44
2022/04/03 10:44:11;;;;;;;5.30;4.80;;;4.80;98.30;;;;;;5052572;28;20833;-47
2022/04/03 10:47:17;;;;;;;5.20;4.70;;;4.60;95.30;;;;;;5052750;28;20485;-44
2022/04/03 10:49:59;;;;;;;5.00;4.60;;;4.70;96.70;;;;;;5052616;28;20475;-46
2022/04/03 10:52:48;;;;;;;5.20;4.70;;;4.60;95.90;;;;;;5052368;28;20448;-44
2022/04/03 10:55:16;;;;;;;6.10;5.50;;;4.60;97.00;;;;;;5052498;28;20508;-45
2022/04/03 10:57:44;;;;;;;4.97;4.43;;;4.70;96.50;;;;;;5052594;28;20480;-44
2022/04/03 11:00:35;;;;;;;5.03;4.63;;;4.80;94.90;;;;;;5052603;28;20475;-44
2022/04/03 11:03:22;;;;;;;5.53;5.07;;;4.70;95.30;;;;;;5048608;28;20511;-44
2022/04/03 11:05:51;;;;;;;6.47;5.00;;;4.70;94.70;;;;;;5052125;28;20457;-45
2022/04/03 11:08:19;;;;;;;5.53;5.03;;;4.80;97.90;;;;;;5052413;28;20860;-44
2022/04/03 11:10:48;;;;;;;5.57;5.03;;;4.80;97.20;;;;;;5052369;28;20445;-45
2022/04/03 11:13:15;;;;;;;5.73;5.23;;;4.90;96.10;;;;;;5052328;28;20445;-44
2022/04/03 11:15:51;;;;;;;6.67;6.10;;;4.90;96.80;;;;;;5052263;28;20908;-44
2022/04/03 11:18:27;;;;;;;6.73;6.10;;;4.70;96.20;;;;;;5052148;28;20821;-48
2022/04/03 11:21:10;;;;;;;5.87;5.37;;;4.90;97.30;;;;;;5052253;28;20840;-49
2022/04/03 11:23:40;;;;;;;6.10;5.50;;;4.90;96.90;;;;;;5052309;28;20443;-44
2022/04/03 11:26:08;;;;;;;5.73;4.57;;;4.90;97.20;;;;;;5052104;28;20511;-44
2022/04/03 11:28:35;;;;;;;6.23;5.57;;;4.90;98.00;;;;;;5052040;28;20481;-47
2022/04/03 11:31:05;;;;;;;6.57;6.07;;;4.90;98.60;;;;;;5051986;28;20524;-44
2022/04/03 11:33:33;;;;;;;6.10;5.60;;;5.10;99.90;;;;;;5052302;28;20525;-44
2022/04/03 11:36:05;;;;;;;6.60;6.00;;;5.30;99.20;;;;;;5051801;28;20564;-44
2022/04/03 11:38:36;;;;;;;6.20;5.70;;;5.30;98.90;;;;;;5051977;28;20441;-45
2022/04/03 11:41:05;;;;;;;7.00;6.40;;;5.10;97.50;;;;;;5051790;28;20493;-49
2022/04/03 11:43:33;;;;;;;6.70;6.20;;;5.10;98.80;;;;;;5051908;28;20449;-44
2022/04/03 11:46:02;;;;;;;6.47;5.87;;;5.10;99.20;;;;;;5051516;28;20496;-44
2022/04/03 11:48:32;;;;;;;6.47;5.80;;;4.90;98.40;;;;;;5051632;28;20445;-45
2022/04/03 11:51:08;;;;;;;6.00;5.40;;;5.00;98.10;;;;;;5051866;28;20472;-44
2022/04/03 11:53:36;;;;;;;6.00;5.53;;;5.00;97.90;;;;;;5051140;28;20910;-44
2022/04/03 11:56:08;;;;;;;5.97;5.30;;;4.90;97.00;;;;;;5051295;28;20568;-44
2022/04/03 11:58:38;;;;;;;7.23;5.70;;;4.80;97.30;;;;;;5051399;28;20491;-44
2022/04/03 12:01:05;;;;;;;9.53;7.23;;;4.80;96.90;;;;;;5051043;28;20472;-45
2022/04/03 12:03:35;;;;;;;6.70;5.60;;;4.80;97.30;;;;;;5049868;28;20529;-44
2022/04/03 12:06:15;;;;;;;7.27;6.57;;;4.90;96.80;;;;;;5050040;28;20532;-44
2022/04/03 12:08:43;;;;;;;7.03;6.27;;;4.80;97.70;;;;;;5050096;28;20447;-44
2022/04/03 12:11:24;;;;;;;7.13;6.43;;;4.90;96.80;;;;;;5050436;28;20476;-44
2022/04/03 12:13:51;;;;;;;6.40;5.90;;;4.80;97.70;;;;;;5050218;28;20452;-44
2022/04/03 12:16:22;;;;;;;6.30;5.43;;;4.90;98.20;;;;;;5050090;28;20831;-44
2022/04/03 12:18:54;;;;;;;7.30;6.70;;;4.80;97.50;;;;;;5051383;28;20452;-44
2022/04/03 12:21:22;;;;;;;5.40;5.00;;;4.80;97.90;;;;;;5051180;28;20448;-44
2022/04/03 12:24:06;;;;;;;6.00;5.50;;;4.80;97.70;;;;;;5051281;28;20441;-44
2022/04/03 12:26:33;;;;;;;6.27;5.77;;;4.90;97.80;;;;;;5051194;28;20473;-44
2022/04/03 12:29:00;;;;;;;5.80;5.30;;;4.80;97.80;;;;;;5050361;28;20476;-50
2022/04/03 12:31:28;;;;;;;6.60;6.07;;;4.90;97.70;;;;;;5051338;28;20481;-44
2022/04/03 12:34:07;;;;;;;6.47;5.87;;;4.90;97.10;;;;;;5050637;28;20441;-45
2022/04/03 12:36:42;;;;;;;7.23;6.50;;;4.90;97.50;;;;;;5050305;28;20558;-46
2022/04/03 12:39:29;;;;;;;6.63;6.03;;;4.80;98.90;;;;;;5049940;28;20468;-47
2022/04/03 12:41:56;;;;;;;6.20;5.60;;;4.70;98.10;;;;;;5050332;28;20476;-45
2022/04/03 12:44:24;;;;;;;6.73;5.90;;;4.70;98.00;;;;;;5050813;28;20453;-46
2022/04/03 12:46:50;;;;;;;6.60;6.00;;;4.70;97.10;;;;;;5050806;28;20449;-44
2022/04/03 12:49:20;;;;;;;6.47;5.93;;;4.80;97.90;;;;;;5049647;28;20524;-49
2022/04/03 12:51:47;;;;;;;6.03;5.43;;;4.80;98.40;;;;;;5050240;28;20473;-44
2022/04/03 12:54:14;;;;;;;6.20;5.40;;;4.80;99.50;;;;;;5050586;28;21007;-47
2022/04/03 12:59:37;;;;;;;5.80;5.30;;;4.80;97.10;;;;;;5050521;28;20483;-45